Time;durP1;ratioP1;P1;durP2;ratioP2;P2;SDS_P1;SDS_P2;PMS_P1;PMS_P2;Temp;Humidity;BMP_temperature;BMP_pressure;BME280_temperature;BME280_humidity;BME280_pressure;Samples;Min_cycle;Max_cycle;Signal;HPM_P1;HPM_P2
2021/05/29 00:00:05;;;;;;;3.90;0.50;;;;;;;27.95;29.99;97085.25;4982430;28;20370;-36
2021/05/29 00:02:30;;;;;;;1.50;0.60;;;;;;;27.95;29.95;97088.69;4980789;28;20077;-37
2021/05/29 00:04:56;;;;;;;0.77;0.50;;;;;;;27.95;29.88;97079.97;4981252;28;20026;-34
2021/05/29 00:07:21;;;;;;;1.42;0.60;;;;;;;27.95;30.04;97072.91;4979191;28;20030;-39
2021/05/29 00:09:46;;;;;;;1.35;0.52;;;;;;;27.96;29.98;97073.75;4979407;28;20034;-32
2021/05/29 00:12:12;;;;;;;1.95;0.70;;;;;;;27.95;30.09;97064.16;4979475;28;20464;-35
2021/05/29 00:14:38;;;;;;;1.35;0.73;;;;;;;27.96;30.00;97071.13;4983277;28;20120;-33
2021/05/29 00:17:05;;;;;;;1.08;0.52;;;;;;;27.94;30.04;97073.84;4982618;28;20022;-33
2021/05/29 00:19:30;;;;;;;1.95;0.73;;;;;;;27.94;29.99;97067.72;4978925;28;20399;-32
2021/05/29 00:21:56;;;;;;;1.83;0.50;;;;;;;27.95;29.92;97064.16;4977273;28;21334;-30
2021/05/29 00:24:21;;;;;;;1.60;0.50;;;;;;;27.93;29.90;97077.41;4980081;28;20048;-38
2021/05/29 00:26:47;;;;;;;1.13;0.60;;;;;;;27.94;29.99;97072.97;4976537;28;20100;-32
2021/05/29 00:29:12;;;;;;;0.50;0.25;;;;;;;27.92;29.98;97065.19;4983286;28;20080;-34
2021/05/29 00:31:38;;;;;;;3.55;0.45;;;;;;;27.92;29.88;97063.38;4979855;28;20371;-32
2021/05/29 00:34:03;;;;;;;1.65;0.60;;;;;;;27.94;29.95;97063.31;4962428;28;20108;-34
2021/05/29 00:36:28;;;;;;;3.03;0.60;;;;;;;27.92;30.11;97054.66;4975239;28;20113;-30
2021/05/29 00:38:54;;;;;;;0.45;0.40;;;;;;;27.91;29.92;97059.06;4976739;28;20040;-35
2021/05/29 00:41:19;;;;;;;0.98;0.40;;;;;;;27.91;29.96;97053.81;4973779;28;20493;-36
2021/05/29 00:43:45;;;;;;;1.65;0.50;;;;;;;27.91;29.90;97051.16;4979363;28;20026;-37
2021/05/29 00:46:11;;;;;;;2.13;0.50;;;;;;;27.91;30.16;97053.81;4981898;28;20045;-34
2021/05/29 00:48:37;;;;;;;1.67;0.50;;;;;;;27.92;30.06;97054.66;4979688;28;20034;-31
2021/05/29 00:51:03;;;;;;;0.65;0.43;;;;;;;27.90;29.99;97052.09;4977626;28;20030;-30
2021/05/29 00:53:29;;;;;;;0.93;0.60;;;;;;;27.90;30.00;97044.22;4976860;28;20022;-31
2021/05/29 00:55:55;;;;;;;1.58;0.50;;;;;;;27.90;30.07;97038.94;4981409;28;20039;-32
2021/05/29 00:58:24;;;;;;;2.30;0.40;;;;;;;27.90;30.01;97038.94;4981412;28;20052;-34
2021/05/29 01:00:49;;;;;;;1.63;0.55;;;;;;;27.90;29.94;97031.03;4980600;28;20042;-36
2021/05/29 01:03:15;;;;;;;0.82;0.40;;;;;;;27.90;29.98;97036.31;4981914;28;20085;-35
2021/05/29 01:05:41;;;;;;;0.60;0.40;;;;;;;27.89;29.99;97029.31;4977939;28;20452;-37
2021/05/29 01:08:06;;;;;;;3.25;0.65;;;;;;;27.89;29.91;97021.41;4979199;28;20034;-32
2021/05/29 01:10:32;;;;;;;1.85;0.50;;;;;;;27.89;30.08;97024.06;4973726;28;20045;-35
2021/05/29 01:13:01;;;;;;;1.58;0.52;;;;;;;27.84;29.78;97010.31;4992013;28;20030;-28
2021/05/29 01:15:36;;;;;;;1.02;0.60;;;;;;;27.89;29.88;97024.06;4979038;28;20018;-33
2021/05/29 01:18:03;;;;;;;1.48;0.22;;;;;;;27.89;30.01;97031.13;4977004;28;20026;-34
2021/05/29 01:20:28;;;;;;;0.55;0.45;;;;;;;27.88;30.06;97038.16;4980437;28;20034;-29
2021/05/29 01:22:54;;;;;;;0.43;0.35;;;;;;;27.88;30.00;97035.53;4973700;28;20181;-35
2021/05/29 01:25:29;;;;;;;0.73;0.47;;;;;;;27.87;29.95;97041.75;4983912;28;20025;-35
2021/05/29 01:27:59;;;;;;;0.68;0.40;;;;;;;27.87;30.05;97036.47;4982445;28;20503;-34
2021/05/29 01:30:24;;;;;;;2.53;0.43;;;;;;;27.87;30.06;97039.09;4981978;28;20106;-36
2021/05/29 01:32:50;;;;;;;2.08;0.40;;;;;;;27.86;30.06;97032.16;4976761;28;20037;-31
2021/05/29 01:35:15;;;;;;;0.45;0.43;;;;;;;27.86;30.01;97033.94;4976894;28;20151;-37
2021/05/29 01:37:40;;;;;;;3.33;0.60;;;;;;;27.85;30.00;97035.72;4977894;28;20033;-34
2021/05/29 01:40:06;;;;;;;0.60;0.40;;;;;;;27.87;29.98;97035.63;4980017;28;20029;-34
2021/05/29 01:42:32;;;;;;;1.67;0.50;;;;;;;27.87;30.08;97040.88;4979074;28;20595;-31
2021/05/29 01:44:57;;;;;;;9.55;1.38;;;;;;;27.86;29.98;97034.78;4968507;28;20038;-33
2021/05/29 01:47:22;;;;;;;6.72;0.70;;;;;;;27.85;29.90;97038.38;4981801;28;20034;-34
2021/05/29 01:49:48;;;;;;;3.38;0.70;;;;;;;27.85;30.03;97038.38;4970101;28;20481;-32
2021/05/29 01:52:13;;;;;;;3.17;0.65;;;;;;;27.85;30.04;97027.84;4986347;28;20032;-32
2021/05/29 01:54:39;;;;;;;2.03;0.55;;;;;;;27.85;30.12;97033.09;4977404;28;20569;-33
2021/05/29 01:57:04;;;;;;;1.75;0.55;;;;;;;27.86;29.93;97036.56;4975797;28;20041;-30
2021/05/29 01:59:30;;;;;;;0.70;0.50;;;;;;;27.84;30.15;97031.38;4979527;28;20064;-37
2021/05/29 02:01:55;;;;;;;1.55;0.40;;;;;;;27.84;29.99;97041.91;4974820;28;20619;-35
2021/05/29 02:04:20;;;;;;;0.68;0.50;;;;;;;27.83;30.00;97042.84;4982508;28;20045;-38
2021/05/29 02:06:46;;;;;;;1.08;0.47;;;;;;;27.84;30.09;97043.72;4980066;28;20025;-31
2021/05/29 02:09:11;;;;;;;1.45;0.55;;;;;;;27.83;29.96;97044.63;4974950;28;20427;-31
2021/05/29 02:11:38;;;;;;;1.50;0.40;;;;;;;27.83;30.05;97039.38;4978078;28;20038;-32
2021/05/29 02:14:03;;;;;;;1.17;0.57;;;;;;;27.83;30.06;97048.13;4975353;28;20064;-39
2021/05/29 02:16:29;;;;;;;2.83;0.47;;;;;;;27.83;29.95;97045.50;4979727;28;20027;-36
2021/05/29 02:18:54;;;;;;;2.50;0.60;;;;;;;27.83;30.13;97045.50;4977146;28;20037;-32
2021/05/29 02:21:20;;;;;;;1.25;0.50;;;;;;;27.82;29.98;97038.53;4990282;28;20034;-39
2021/05/29 02:23:49;;;;;;;0.57;0.47;;;;;;;27.82;30.08;97043.78;4974706;28;20021;-37
2021/05/29 02:26:16;;;;;;;1.40;0.60;;;;;;;27.81;30.05;97044.75;4977742;28;20058;-35
2021/05/29 02:28:43;;;;;;;0.73;0.43;;;;;;;27.81;30.02;97044.75;4978134;28;20069;-36
2021/05/29 02:31:09;;;;;;;1.90;0.52;;;;;;;27.82;30.15;97038.53;4979289;28;20053;-37
2021/05/29 02:33:35;;;;;;;0.50;0.40;;;;;;;27.80;30.20;97045.66;4974508;28;20619;-34
2021/05/29 02:36:01;;;;;;;3.90;0.60;;;;;;;27.82;30.09;97049.06;4974583;28;20095;-35
2021/05/29 02:38:26;;;;;;;0.68;0.40;;;;;;;27.81;29.96;97047.38;4976193;28;20610;-33
2021/05/29 02:40:51;;;;;;;1.00;0.40;;;;;;;27.76;29.95;97037.09;4973254;28;20436;-35
2021/05/29 02:43:17;;;;;;;2.42;0.55;;;;;;;27.80;29.98;97050.91;4974350;28;20026;-37
2021/05/29 02:45:42;;;;;;;0.68;0.40;;;;;;;27.81;30.00;97051.78;4980029;28;20034;-38
2021/05/29 02:48:11;;;;;;;1.08;0.52;;;;;;;27.81;29.99;97051.78;4973134;28;20026;-33
2021/05/29 02:50:37;;;;;;;1.05;0.40;;;;;;;27.80;30.15;97050.91;4981475;28;20037;-38
2021/05/29 02:53:03;;;;;;;1.75;0.60;;;;;;;27.80;29.97;97040.38;4977212;28;20029;-40
2021/05/29 02:55:28;;;;;;;0.75;0.40;;;;;;;27.80;30.10;97045.66;4980631;28;20018;-37
2021/05/29 02:57:55;;;;;;;0.70;0.43;;;;;;;27.76;30.06;97046.75;4976476;28;20025;-33
2021/05/29 03:00:25;;;;;;;0.73;0.52;;;;;;;27.81;30.03;97057.03;4976914;28;20038;-32
2021/05/29 03:02:51;;;;;;;2.15;0.40;;;;;;;27.80;30.04;97053.56;4972871;28;20065;-38
2021/05/29 03:05:16;;;;;;;1.88;0.60;;;;;;;27.81;30.00;97046.50;4981614;28;20033;-31
2021/05/29 03:07:42;;;;;;;0.73;0.43;;;;;;;27.79;30.04;97054.50;4980966;28;20084;-37
2021/05/29 03:10:08;;;;;;;1.10;0.50;;;;;;;27.79;30.08;97051.88;4978328;28;20045;-35
2021/05/29 03:12:42;;;;;;;0.50;0.30;;;;;;;27.79;30.10;97059.75;4978212;28;20033;-35
2021/05/29 03:15:08;;;;;;;0.70;0.45;;;;;;;27.79;29.98;97059.75;4984862;28;20030;-32
2021/05/29 03:17:34;;;;;;;0.60;0.50;;;;;;;27.79;30.22;97065.03;4978146;28;20045;-34
2021/05/29 03:19:59;;;;;;;0.98;0.55;;;;;;;27.79;30.28;97070.28;4976169;28;20030;-35
2021/05/29 03:22:25;;;;;;;1.60;0.40;;;;;;;27.78;30.01;97071.25;4975014;28;20627;-36
2021/05/29 03:24:50;;;;;;;0.45;0.22;;;;;;;27.78;30.01;97063.34;4976950;28;20019;-34
2021/05/29 03:27:18;;;;;;;0.45;0.40;;;;;;;27.78;30.08;97071.25;4974788;28;20030;-35
2021/05/29 03:29:44;;;;;;;0.75;0.50;;;;;;;27.78;30.06;97073.88;4975013;28;20030;-35
2021/05/29 03:32:09;;;;;;;1.15;0.60;;;;;;;27.78;30.08;97074.72;4980218;28;20690;-34
2021/05/29 03:34:35;;;;;;;1.00;0.50;;;;;;;27.78;30.06;97073.88;4981667;28;20034;-34
2021/05/29 03:37:00;;;;;;;1.38;0.45;;;;;;;27.76;29.97;97076.59;4977502;28;20030;-32
2021/05/29 03:39:25;;;;;;;2.13;0.68;;;;;;;27.73;29.65;97076.75;4976582;28;20033;-34
2021/05/29 03:41:51;;;;;;;0.85;0.60;;;;;;;27.77;30.07;97087.97;4977331;28;20034;-31
2021/05/29 03:44:16;;;;;;;0.90;0.47;;;;;;;27.77;30.02;97093.25;4983359;28;20042;-33
2021/05/29 03:46:42;;;;;;;2.95;1.05;;;;;;;27.76;30.02;97083.63;4985394;28;20037;-37
2021/05/29 03:49:07;;;;;;;2.40;0.93;;;;;;;27.75;30.10;97089.84;4977449;28;20034;-35
2021/05/29 03:51:32;;;;;;;1.05;0.60;;;;;;;27.74;30.07;97090.78;4980104;28;20029;-36
2021/05/29 03:53:58;;;;;;;3.22;0.65;;;;;;;27.73;30.07;97086.47;4981942;28;20037;-37
2021/05/29 03:56:23;;;;;;;2.75;0.60;;;;;;;27.73;30.14;97091.72;4984788;28;20576;-34
2021/05/29 03:58:49;;;;;;;0.30;0.30;;;;;;;27.73;30.11;97097.00;4979315;28;20980;-39
2021/05/29 04:01:14;;;;;;;2.28;0.57;;;;;;;27.72;30.09;97104.03;4980804;28;20045;-37
2021/05/29 04:03:40;;;;;;;1.70;0.43;;;;;;;27.73;30.10;97102.25;4979494;28;20037;-36
2021/05/29 04:06:05;;;;;;;1.92;0.52;;;;;;;27.72;30.10;97106.66;4982843;28;20315;-35
2021/05/29 04:08:30;;;;;;;3.40;0.73;;;;;;;27.72;30.09;97106.66;4980861;28;20029;-29
2021/05/29 04:10:56;;;;;;;5.47;0.95;;;;;;;27.71;30.11;97104.97;4987724;28;20380;-37
2021/05/29 04:13:22;;;;;;;2.15;0.60;;;;;;;27.71;30.02;97112.00;4974497;28;20034;-29
2021/05/29 04:15:47;;;;;;;2.25;0.60;;;;;;;27.71;30.08;97104.97;4980518;28;20342;-36
2021/05/29 04:18:13;;;;;;;2.35;0.63;;;;;;;27.72;30.11;97111.09;4979913;28;20018;-34
2021/05/29 04:20:38;;;;;;;3.45;0.70;;;;;;;27.72;30.11;97105.84;4984785;28;20031;-35
2021/05/29 04:23:04;;;;;;;2.45;0.77;;;;;;;27.72;30.13;97105.84;4981862;28;20033;-35
2021/05/29 04:25:29;;;;;;;1.50;0.60;;;;;;;27.71;30.16;97109.38;4979997;28;20530;-34
2021/05/29 04:27:55;;;;;;;1.08;0.50;;;;;;;27.71;30.10;97112.00;4979533;28;20064;-33
2021/05/29 04:30:22;;;;;;;1.05;0.50;;;;;;;27.71;30.01;97117.28;4979741;28;20044;-37
2021/05/29 04:32:48;;;;;;;0.95;0.50;;;;;;;27.71;30.09;97117.28;4983067;28;20034;-30
2021/05/29 04:35:13;;;;;;;1.23;0.60;;;;;;;27.70;29.95;97108.53;4984323;28;20032;-35
2021/05/29 04:37:39;;;;;;;0.98;0.50;;;;;;;27.70;30.13;97112.94;4976770;28;20084;-37
2021/05/29 04:40:07;;;;;;;1.48;0.47;;;;;;;27.70;30.11;97118.22;4977166;28;20026;-36
2021/05/29 04:42:32;;;;;;;0.90;0.50;;;;;;;27.70;30.03;97121.72;4974868;28;20053;-33
2021/05/29 04:44:57;;;;;;;2.15;0.80;;;;;;;27.70;30.14;97124.34;4976237;28;20058;-32
2021/05/29 04:47:23;;;;;;;2.45;0.73;;;;;;;27.69;30.07;97116.53;4976947;28;20030;-34
2021/05/29 04:49:48;;;;;;;1.35;0.63;;;;;;;27.70;30.04;97123.47;4976660;28;20026;-36
2021/05/29 04:52:14;;;;;;;1.33;0.55;;;;;;;27.70;30.08;97120.84;4980634;28;20041;-36
2021/05/29 04:54:39;;;;;;;3.08;1.00;;;;;;;27.71;29.96;97122.53;4983349;28;20029;-33
2021/05/29 04:57:05;;;;;;;2.08;0.50;;;;;;;27.70;29.91;97121.72;4976052;28;20096;-36
2021/05/29 04:59:31;;;;;;;1.70;0.80;;;;;;;27.70;30.03;97123.47;4980142;28;20033;-35
2021/05/29 05:01:56;;;;;;;2.67;0.47;;;;;;;27.71;29.92;97114.63;4981740;28;20558;-30
2021/05/29 05:04:22;;;;;;;2.75;0.60;;;;;;;27.70;30.10;97119.06;4977374;28;20037;-36
2021/05/29 05:06:47;;;;;;;1.30;0.68;;;;;;;27.70;30.03;97119.06;4980845;28;20859;-32
2021/05/29 05:09:12;;;;;;;1.40;0.63;;;;;;;27.71;30.04;97119.91;4976759;28;21280;-31
2021/05/29 05:11:38;;;;;;;0.90;0.50;;;;;;;27.71;29.90;97125.19;4975907;28;20046;-31
2021/05/29 05:14:04;;;;;;;0.88;0.55;;;;;;;27.71;29.94;97126.03;4980881;28;20042;-35
2021/05/29 05:16:29;;;;;;;1.52;0.70;;;;;;;27.71;30.05;97126.03;4975197;28;20026;-35
2021/05/29 05:18:54;;;;;;;1.70;0.82;;;;;;;27.71;30.03;97125.19;4978138;28;20544;-33
2021/05/29 05:21:21;;;;;;;5.05;1.00;;;;;;;27.71;29.99;97133.06;4984672;28;20029;-29
2021/05/29 05:23:49;;;;;;;2.45;0.60;;;;;;;27.71;30.07;97130.44;4978999;28;20029;-30
2021/05/29 05:26:15;;;;;;;0.70;0.40;;;;;;;27.67;29.95;97126.28;4978678;28;20614;-34
2021/05/29 05:28:40;;;;;;;1.10;0.50;;;;;;;27.70;29.90;97134.88;4981664;28;20038;-37
2021/05/29 05:31:05;;;;;;;0.95;0.50;;;;;;;27.70;30.00;97134.00;4973784;28;20042;-33
2021/05/29 05:33:38;;;;;;;2.25;0.70;;;;;;;27.71;29.94;97147.09;4960022;28;20582;-31
2021/05/29 05:36:06;;;;;;;0.73;0.57;;;;;;;27.70;30.01;97140.16;4974343;28;20013;-29
2021/05/29 05:38:32;;;;;;;0.88;0.60;;;;;;;27.71;30.11;97133.06;4979833;28;20144;-32
2021/05/29 05:40:57;;;;;;;0.82;0.47;;;;;;;27.71;29.85;97138.34;4997336;28;20073;-31
2021/05/29 05:43:23;;;;;;;0.40;0.30;;;;;;;27.71;30.00;97140.97;4975994;28;20033;-33
2021/05/29 05:45:49;;;;;;;2.05;0.40;;;;;;;27.70;29.96;97136.66;4975688;28;20680;-34
2021/05/29 05:48:14;;;;;;;2.15;0.60;;;;;;;27.71;30.05;97133.06;4978802;28;20026;-31
2021/05/29 05:50:52;;;;;;;1.25;0.50;;;;;;;27.70;30.04;97134.00;4975032;28;20026;-30
2021/05/29 05:53:18;;;;;;;1.75;0.52;;;;;;;27.69;29.99;97135.78;4978970;28;20124;-33
2021/05/29 05:55:43;;;;;;;2.50;0.60;;;;;;;27.70;29.88;97142.78;4973635;28;20619;-33
2021/05/29 05:58:09;;;;;;;0.65;0.40;;;;;;;27.70;29.95;97139.28;4978407;28;20030;-34
2021/05/29 06:00:34;;;;;;;0.63;0.50;;;;;;;27.70;29.88;97139.28;4995830;28;20043;-33
2021/05/29 06:02:59;;;;;;;0.95;0.50;;;;;;;27.69;29.93;97145.50;4976980;28;20042;-29
2021/05/29 06:05:25;;;;;;;1.02;0.45;;;;;;;27.70;29.90;97149.81;4979196;28;20405;-32
2021/05/29 06:07:50;;;;;;;1.38;0.50;;;;;;;27.69;29.93;97142.84;4979790;28;20034;-32
2021/05/29 06:10:16;;;;;;;1.05;0.65;;;;;;;27.69;29.91;97150.75;4980410;28;20120;-31
2021/05/29 06:12:46;;;;;;;0.52;0.50;;;;;;;27.69;30.01;97148.94;4992544;28;20105;-31
2021/05/29 06:20:29;;;;;;;0.55;0.43;;;;;;;27.68;29.89;97144.63;4979612;28;20034;-36
2021/05/29 06:22:54;;;;;;;0.47;0.40;;;;;;;27.69;29.83;97150.75;4980889;28;20038;-33
2021/05/29 06:25:19;;;;;;;0.90;0.60;;;;;;;27.68;29.90;97152.53;4979068;28;20831;-30
2021/05/29 06:27:45;;;;;;;0.38;0.25;;;;;;;27.69;30.01;97153.38;4974808;28;20042;-33
2021/05/29 06:30:11;;;;;;;0.50;0.43;;;;;;;27.69;30.02;97154.22;4978202;28;20092;-31
2021/05/29 06:32:38;;;;;;;0.65;0.45;;;;;;;27.68;29.86;97155.16;4977997;28;20022;-36
2021/05/29 06:35:05;;;;;;;0.73;0.50;;;;;;;27.69;29.77;97159.47;4977906;28;20042;-35
2021/05/29 06:37:30;;;;;;;1.25;0.57;;;;;;;27.68;29.85;97152.53;4972808;28;20022;-31
2021/05/29 06:39:56;;;;;;;1.00;0.50;;;;;;;27.69;29.83;97156.84;4972286;28;20165;-32
2021/05/29 06:42:21;;;;;;;1.90;0.45;;;;;;;27.69;29.90;97153.38;4976933;28;20030;-30
2021/05/29 06:44:46;;;;;;;0.85;0.65;;;;;;;27.64;30.00;97151.84;4979512;28;20595;-29
2021/05/29 06:47:12;;;;;;;0.40;0.40;;;;;;;27.70;29.89;97165.63;4972273;28;20045;-35
2021/05/29 06:49:39;;;;;;;1.52;0.50;;;;;;;27.69;29.88;97172.66;4975299;28;20033;-32
2021/05/29 06:52:11;;;;;;;10.07;1.30;;;;;;;27.69;30.12;97163.91;4972389;28;20092;-41
2021/05/29 06:58:34;;;;;;;24.67;1.63;;;;;;;27.69;30.00;97158.66;4972853;28;20089;-36
2021/05/29 07:00:25;;;;;;;3.30;0.52;;;;;;;27.70;29.99;97173.50;4900949;29;20047;-32
2021/05/29 07:02:50;;;;;;;0.63;0.40;;;;;;;27.69;30.02;97179.72;4960142;28;20035;-36
2021/05/29 07:05:16;;;;;;;4.65;0.75;;;;;;;27.71;29.88;97180.47;4952972;28;20030;-36
2021/05/29 07:07:43;;;;;;;4.30;0.65;;;;;;;27.72;30.01;97190.09;4978311;28;20054;-32
2021/05/29 07:10:08;;;;;;;4.75;0.60;;;;;;;27.73;29.84;97189.16;4983114;28;20033;-36
2021/05/29 07:12:34;;;;;;;1.77;0.73;;;;;;;27.73;29.97;97186.50;4961683;28;20061;-38
2021/05/29 07:14:59;;;;;;;2.80;0.50;;;;;;;27.74;30.22;97188.22;4976628;28;20375;-38
2021/05/29 07:17:31;;;;;;;3.85;0.60;;;;;;;27.75;30.16;97184.63;4977497;28;20034;-33
2021/05/29 07:19:56;;;;;;;0.68;0.68;;;;;;;27.75;29.89;97180.22;4978854;28;20685;-40
2021/05/29 07:22:21;;;;;;;3.28;0.70;;;;;;;27.78;30.00;97184.47;4975562;28;20052;-33
2021/05/29 07:24:47;;;;;;;1.23;0.80;;;;;;;27.79;30.10;97180.91;4977807;28;20034;-34
2021/05/29 07:27:12;;;;;;;0.82;0.63;;;;;;;27.80;29.94;97177.31;4979055;28;20025;-32
2021/05/29 07:29:38;;;;;;;2.22;1.10;;;;;;;27.81;30.00;97176.41;4976995;28;20034;-36
2021/05/29 07:32:03;;;;;;;0.80;0.70;;;;;;;27.84;29.98;97178.03;4977518;28;20043;-39
2021/05/29 07:34:29;;;;;;;1.58;0.50;;;;;;;27.84;30.09;97178.03;4982295;28;20396;-36
2021/05/29 07:36:54;;;;;;;1.15;0.60;;;;;;;27.85;30.16;97177.94;4978478;28;20038;-39
2021/05/29 07:39:19;;;;;;;3.72;0.85;;;;;;;27.86;30.08;97177.00;4963934;28;20025;-38
2021/05/29 07:41:45;;;;;;;5.82;0.60;;;;;;;27.87;30.10;97172.56;4979291;28;20029;-32
2021/05/29 07:44:10;;;;;;;2.22;0.70;;;;;;;27.89;30.22;97170.72;4976464;28;20030;-37
2021/05/29 07:46:36;;;;;;;2.35;0.70;;;;;;;27.89;30.13;97166.28;4972476;28;20484;-32
2021/05/29 07:49:03;;;;;;;3.90;0.90;;;;;;;27.91;30.20;97164.41;4978246;28;20041;-32
2021/05/29 07:51:34;;;;;;;1.42;0.68;;;;;;;27.91;29.99;97169.69;4979717;28;20548;-36
2021/05/29 07:54:00;;;;;;;1.85;0.90;;;;;;;27.94;30.18;97165.16;4976974;28;20034;-30
2021/05/29 07:56:25;;;;;;;3.90;1.08;;;;;;;27.95;30.26;97167.72;4978972;28;20026;-34
2021/05/29 07:58:51;;;;;;;1.60;0.80;;;;;;;27.96;30.22;97166.78;4980826;28;20096;-36
2021/05/29 08:01:17;;;;;;;2.45;0.90;;;;;;;27.98;30.11;97164.06;4977476;28;20706;-32
2021/05/29 08:03:42;;;;;;;1.52;0.80;;;;;;;28.00;30.26;97167.47;4977382;28;20534;-32
2021/05/29 08:06:11;;;;;;;1.25;0.80;;;;;;;28.00;30.34;97164.84;4974414;28;20029;-32
2021/05/29 08:08:36;;;;;;;7.22;0.73;;;;;;;28.02;30.35;97165.59;4980757;28;20127;-36
2021/05/29 08:11:03;;;;;;;1.70;0.80;;;;;;;28.02;30.13;97165.59;4974866;28;20563;-30
2021/05/29 08:13:29;;;;;;;2.75;0.80;;;;;;;28.03;30.24;97162.00;4962213;28;20120;-38
2021/05/29 08:15:54;;;;;;;2.05;0.80;;;;;;;28.04;30.39;97169.84;4978437;28;20030;-32
2021/05/29 08:18:20;;;;;;;2.05;1.00;;;;;;;28.06;30.26;97166.28;4977434;28;20026;-33
2021/05/29 08:20:49;;;;;;;15.25;1.95;;;;;;;28.05;28.82;97170.69;4976201;28;20326;-32
2021/05/29 08:23:15;;;;;;;15.27;1.83;;;;;;;28.01;27.08;97164.75;4979221;28;20034;-30
2021/05/29 08:25:40;;;;;;;2.47;1.10;;;;;;;27.95;24.90;97174.78;4958631;28;20026;-31
2021/05/29 08:28:06;;;;;;;2.13;1.30;;;;;;;27.85;23.42;97167.41;4962778;28;20172;-33
2021/05/29 08:30:31;;;;;;;3.35;1.08;;;;;;;27.71;20.98;97176.06;4973763;28;20849;-32
2021/05/29 08:32:56;;;;;;;4.18;1.30;;;;;;;27.56;20.69;97169.81;4977813;28;20557;-33
2021/05/29 08:35:22;;;;;;;3.00;1.20;;;;;;;27.43;21.38;97168.78;4977269;28;20030;-36
2021/05/29 08:37:47;;;;;;;4.38;1.20;;;;;;;27.30;21.56;97172.06;4976111;28;20417;-34
2021/05/29 08:40:14;;;;;;;5.32;1.10;;;;;;;27.18;21.87;97165.69;4977695;28;20907;-31
2021/05/29 08:42:43;;;;;;;8.70;1.27;;;;;;;27.15;21.99;97175.53;4975407;28;20097;-31
2021/05/29 08:45:10;;;;;;;2.33;1.10;;;;;;;27.09;22.30;97172.31;4963922;28;20022;-36
2021/05/29 08:47:35;;;;;;;1.85;0.98;;;;;;;27.07;22.65;97178.53;4974351;28;20517;-30
2021/05/29 08:50:01;;;;;;;3.80;1.15;;;;;;;27.06;22.82;97182.97;4992627;28;20037;-35
2021/05/29 08:52:26;;;;;;;2.28;1.50;;;;;;;27.02;23.00;97170.91;4978378;28;20348;-38
2021/05/29 08:54:51;;;;;;;3.35;0.88;;;;;;;27.08;23.14;97170.56;4977452;28;20243;-36
2021/05/29 08:57:17;;;;;;;1.77;0.95;;;;;;;27.09;23.48;97174.94;4963516;28;20030;-36
2021/05/29 08:59:43;;;;;;;3.85;1.05;;;;;;;27.11;23.82;97174.81;4978411;28;20636;-35
2021/05/29 09:02:08;;;;;;;2.65;1.08;;;;;;;27.13;23.79;97184.38;4977247;28;20039;-34
2021/05/29 09:04:34;;;;;;;2.22;1.17;;;;;;;27.15;23.48;97176.38;4976244;28;20053;-35
2021/05/29 09:06:59;;;;;;;3.60;1.38;;;;;;;27.18;23.68;97176.22;4975608;28;20401;-39
2021/05/29 09:09:25;;;;;;;2.50;1.20;;;;;;;27.20;24.03;97178.75;4976725;28;20073;-35
2021/05/29 09:12:03;;;;;;;2.72;1.10;;;;;;;27.21;24.30;97175.19;4976641;28;20030;-33
2021/05/29 09:14:36;;;;;;;4.50;1.30;;;;;;;27.24;24.27;97175.03;4978059;28;20034;-35
2021/05/29 09:17:19;;;;;;;2.83;1.40;;;;;;;27.27;24.08;97185.41;4975736;28;20034;-36
2021/05/29 09:20:07;;;;;;;5.30;1.67;;;;;;;27.28;24.11;97179.22;4974104;28;20075;-33
2021/05/29 09:22:35;;;;;;;1.75;1.20;;;;;;;27.30;24.02;97185.22;4974715;28;20065;-32
2021/05/29 09:25:07;;;;;;;2.67;0.90;;;;;;;27.32;24.22;97191.28;4973945;28;20022;-37
2021/05/29 09:27:34;;;;;;;8.27;1.40;;;;;;;27.33;24.09;97189.47;4974162;28;20084;-33
2021/05/29 09:30:01;;;;;;;2.55;1.20;;;;;;;27.34;24.36;97183.31;4975164;28;20034;-39
2021/05/29 09:32:26;;;;;;;3.03;1.10;;;;;;;27.35;24.80;97182.38;4975837;28;20034;-35
2021/05/29 09:34:53;;;;;;;3.83;1.20;;;;;;;27.36;24.98;97184.91;4961827;28;20080;-37
2021/05/29 09:37:23;;;;;;;2.58;1.30;;;;;;;27.37;25.25;97191.00;4980722;28;20038;-37
2021/05/29 09:39:54;;;;;;;2.40;1.02;;;;;;;27.38;25.33;97193.56;4980508;28;20033;-39
2021/05/29 09:42:19;;;;;;;4.70;1.75;;;;;;;27.39;25.48;97195.25;4980251;28;20026;-41
2021/05/29 09:44:45;;;;;;;2.72;1.50;;;;;;;27.41;25.49;97197.81;4982801;28;20125;-36
2021/05/29 09:47:15;;;;;;;4.35;1.55;;;;;;;27.43;25.51;97200.38;4984568;28;20022;-34
2021/05/29 09:49:42;;;;;;;3.45;1.67;;;;;;;27.44;25.59;97202.06;4981207;28;20724;-37
2021/05/29 09:52:32;;;;;;;5.55;1.33;;;;;;;27.45;25.74;97188.81;4982826;28;20488;-37
2021/05/29 09:55:08;;;;;;;2.30;1.38;;;;;;;27.47;25.74;97192.25;4984822;28;20029;-35
2021/05/29 09:57:52;;;;;;;4.53;1.60;;;;;;;27.48;25.88;97193.94;4982400;28;20689;-36
2021/05/29 10:00:17;;;;;;;3.17;1.50;;;;;;;27.49;25.75;97193.00;4978592;28;20030;-34
2021/05/29 10:02:59;;;;;;;4.97;1.65;;;;;;;27.50;25.92;97201.75;4981494;28;20104;-36
2021/05/29 10:05:32;;;;;;;2.15;1.23;;;;;;;27.51;25.93;97203.44;4996065;28;20112;-35
2021/05/29 10:07:58;;;;;;;2.30;1.55;;;;;;;27.53;26.06;97206.81;4982183;28;20034;-38
2021/05/29 10:10:23;;;;;;;4.50;1.52;;;;;;;27.53;26.07;97204.19;4982957;28;20038;-38
2021/05/29 10:12:49;;;;;;;4.30;1.60;;;;;;;27.54;26.07;97208.56;4981928;28;20037;-36
2021/05/29 10:15:15;;;;;;;2.25;1.35;;;;;;;27.54;26.13;97205.91;4984970;28;20034;-37
2021/05/29 10:17:41;;;;;;;2.10;1.25;;;;;;;27.56;26.18;97196.16;4963845;28;20064;-32
2021/05/29 10:20:07;;;;;;;3.38;1.33;;;;;;;27.57;26.22;97202.28;4980750;28;20496;-34
2021/05/29 10:22:33;;;;;;;3.00;1.45;;;;;;;27.57;26.23;97197.00;4980814;28;20514;-34
2021/05/29 10:24:58;;;;;;;3.05;1.60;;;;;;;27.57;26.10;97204.91;4963664;28;20026;-36
2021/05/29 10:27:24;;;;;;;2.92;1.13;;;;;;;27.58;26.34;97196.91;4983246;28;20030;-33
2021/05/29 10:29:58;;;;;;;2.28;1.27;;;;;;;27.59;26.37;97201.25;4978678;28;20112;-38
2021/05/29 10:32:27;;;;;;;2.15;1.27;;;;;;;27.61;26.36;97202.03;4964907;28;20574;-35
2021/05/29 10:34:59;;;;;;;2.95;1.40;;;;;;;27.61;26.32;97204.66;4979915;28;20382;-38
2021/05/29 10:37:38;;;;;;;2.88;1.30;;;;;;;27.62;26.38;97205.53;4977521;28;20145;-43
2021/05/29 10:40:15;;;;;;;5.45;1.23;;;;;;;27.63;26.37;97209.84;4972453;28;20034;-37
2021/05/29 10:42:40;;;;;;;2.22;1.10;;;;;;;27.63;26.43;97208.09;4972274;28;20066;-38
2021/05/29 10:45:20;;;;;;;2.70;1.20;;;;;;;27.64;26.52;97209.78;4980144;28;20114;-33
2021/05/29 10:48:04;;;;;;;1.77;1.30;;;;;;;27.64;26.58;97214.19;4974281;28;20026;-32
2021/05/29 10:50:55;;;;;;;1.85;1.30;;;;;;;27.65;26.51;97206.19;4974773;28;20061;-39
2021/05/29 10:53:33;;;;;;;1.55;1.10;;;;;;;27.67;26.61;97207.91;4975252;28;20117;-36
2021/05/29 10:56:21;;;;;;;11.18;1.25;;;;;;;27.67;26.41;97207.91;4975814;28;20118;-32
2021/05/29 10:58:56;;;;;;;6.25;1.73;;;;;;;27.65;26.04;97200.94;4974937;28;20060;-31
2021/05/29 11:01:22;;;;;;;4.28;1.30;;;;;;;27.67;25.66;97205.25;4975718;28;20619;-36
2021/05/29 11:04:15;;;;;;;5.45;1.13;;;;;;;27.65;25.43;97200.94;4974166;28;21111;-32
2021/05/29 11:07:09;;;;;;;3.20;1.20;;;;;;;27.65;25.14;97200.09;4972318;28;20180;-35
2021/05/29 11:09:47;;;;;;;13.38;1.58;;;;;;;27.65;24.54;97200.94;4973716;28;20899;-35
2021/05/29 11:12:13;;;;;;;4.32;1.52;;;;;;;27.61;24.36;97196.78;4978039;28;20041;-33
2021/05/29 11:14:56;;;;;;;2.83;1.20;;;;;;;27.62;24.37;97195.00;4972958;28;20034;-33
2021/05/29 11:17:25;;;;;;;2.17;1.10;;;;;;;27.59;24.53;97196.00;4974001;28;20042;-35
2021/05/29 11:20:06;;;;;;;3.92;1.10;;;;;;;27.58;24.91;97199.53;4973016;28;20113;-33
2021/05/29 11:22:46;;;;;;;1.50;0.98;;;;;;;27.57;25.20;97189.94;4975932;28;20037;-33
2021/05/29 11:25:14;;;;;;;2.75;1.50;;;;;;;27.59;25.05;97193.34;4973359;28;20026;-38
2021/05/29 11:27:40;;;;;;;1.55;1.20;;;;;;;27.59;24.86;97196.00;4977040;28;20084;-38
2021/05/29 11:30:10;;;;;;;3.05;1.10;;;;;;;27.60;24.87;97195.03;4979486;28;20526;-36
2021/05/29 11:35:36;;;;;;;1.67;1.30;;;;;;;27.62;25.16;97195.00;4972886;28;20031;-39
2021/05/29 11:38:22;;;;;;;4.03;1.63;;;;;;;27.62;25.10;97195.00;4966849;28;20092;-35
2021/05/29 11:40:56;;;;;;;3.30;1.00;;;;;;;27.62;24.96;97187.94;4969481;28;20300;-31
2021/05/29 11:43:48;;;;;;;2.35;1.33;;;;;;;27.63;24.98;97194.91;4974201;28;20697;-36
2021/05/29 11:46:14;;;;;;;2.97;1.40;;;;;;;27.63;24.98;97188.78;4974970;28;20693;-31